Time;durP1;ratioP1;P1;durP2;ratioP2;P2;SDS_P1;SDS_P2;PMS_P1;PMS_P2;Temp;Humidity;BMP_temperature;BMP_pressure;BME280_temperature;BME280_humidity;BME280_pressure;Samples;Min_cycle;Max_cycle;Signal;HPM_P1;HPM_P2
2021/06/21 00:00:41;;;;;;;15.75;1.40;;;26.40;92.50;;;;;;4423787;32;20134;-74
2021/06/21 00:03:06;;;;;;;0.88;0.85;;;26.50;92.60;;;;;;4421637;32;20081;-74
2021/06/21 00:05:32;;;;;;;1.20;0.95;;;26.50;92.70;;;;;;4420841;32;20077;-73
2021/06/21 00:07:59;;;;;;;0.40;0.40;;;26.50;93.00;;;;;;4417990;32;20083;-73
2021/06/21 00:10:25;;;;;;;0.40;0.40;;;26.50;93.30;;;;;;4419852;32;20113;-74
2021/06/21 00:12:50;;;;;;;2.42;0.80;;;26.60;93.40;;;;;;4422130;32;20081;-73
2021/06/21 00:15:20;;;;;;;0.30;0.30;;;26.50;93.70;;;;;;4420251;32;20571;-73
2021/06/21 00:17:46;;;;;;;0.57;0.57;;;26.50;94.30;;;;;;4421847;32;20077;-73
2021/06/21 00:20:13;;;;;;;0.88;0.85;;;26.40;94.60;;;;;;4420315;32;20127;-74
2021/06/21 00:22:38;;;;;;;3.65;1.17;;;26.30;95.00;;;;;;4420308;32;20094;-73
2021/06/21 00:25:05;;;;;;;0.68;0.68;;;26.30;95.20;;;;;;4419416;32;20503;-74
2021/06/21 00:27:32;;;;;;;2.83;1.92;;;26.20;95.80;;;;;;4420111;32;20065;-74
2021/06/21 00:29:57;;;;;;;1.45;0.68;;;26.10;96.30;;;;;;4418608;32;20062;-74
2021/06/21 00:32:23;;;;;;;1.25;0.60;;;26.00;96.90;;;;;;4420221;32;20069;-74
2021/06/21 00:34:48;;;;;;;0.88;0.75;;;26.00;97.50;;;;;;4420685;32;20066;-74
2021/06/21 00:37:15;;;;;;;1.23;0.93;;;26.00;97.90;;;;;;4421077;32;20077;-74
2021/06/21 00:39:40;;;;;;;1.10;0.80;;;26.00;98.50;;;;;;4420988;32;20515;-74
2021/06/21 00:42:06;;;;;;;1.00;0.82;;;25.90;99.10;;;;;;4418304;32;20066;-74
2021/06/21 00:44:32;;;;;;;0.62;0.62;;;25.90;99.70;;;;;;4419941;32;20066;-74
2021/06/21 00:46:57;;;;;;;0.50;0.50;;;25.70;99.90;;;;;;4418895;32;20069;-73
2021/06/21 00:49:22;;;;;;;0.80;0.70;;;25.70;99.90;;;;;;4419620;32;20235;-74
2021/06/21 00:51:52;;;;;;;1.50;0.98;;;25.60;99.90;;;;;;4419574;32;20091;-74
2021/06/21 00:54:18;;;;;;;0.57;0.50;;;25.60;99.90;;;;;;4418534;32;20121;-74
2021/06/21 00:56:43;;;;;;;1.37;1.10;;;25.60;99.90;;;;;;4418938;32;20069;-74
2021/06/21 00:59:09;;;;;;;1.12;0.62;;;25.50;99.90;;;;;;4419178;32;20077;-74
2021/06/21 01:01:35;;;;;;;0.50;0.50;;;25.50;99.90;;;;;;4421244;32;20570;-74
2021/06/21 01:04:01;;;;;;;1.45;0.93;;;25.50;99.90;;;;;;4419984;32;20476;-74
2021/06/21 01:06:28;;;;;;;2.95;1.25;;;25.30;99.90;;;;;;4419695;32;20085;-74
2021/06/21 01:08:54;;;;;;;2.05;1.15;;;25.20;99.90;;;;;;4418056;32;20086;-74
2021/06/21 01:11:20;;;;;;;1.00;0.55;;;25.10;99.90;;;;;;4418377;32;20498;-74
2021/06/21 01:14:00;;;;;;;1.37;1.02;;;25.00;99.90;;;;;;4419631;32;20181;-74
2021/06/21 01:16:30;;;;;;;2.08;1.12;;;25.10;99.90;;;;;;4420253;32;20093;-74
2021/06/21 01:19:05;;;;;;;0.40;0.40;;;25.10;99.90;;;;;;4419770;32;20450;-74
2021/06/21 01:21:59;;;;;;;0.70;0.62;;;25.10;99.90;;;;;;4421770;32;20069;-74
2021/06/21 01:24:28;;;;;;;1.67;1.10;;;25.10;99.90;;;;;;4413475;32;20073;-74
2021/06/21 01:27:08;;;;;;;0.50;0.50;;;25.00;99.90;;;;;;4417824;32;20078;-74
2021/06/21 01:29:51;;;;;;;0.80;0.60;;;25.00;99.90;;;;;;4422281;32;20065;-74
2021/06/21 01:32:38;;;;;;;1.25;0.60;;;25.00;99.90;;;;;;4419556;32;20082;-74
2021/06/21 01:35:07;;;;;;;0.35;0.32;;;24.90;99.90;;;;;;4406874;32;20078;-74
2021/06/21 01:37:33;;;;;;;4.87;1.50;;;25.00;99.90;;;;;;4421557;32;20062;-74
2021/06/21 01:40:01;;;;;;;0.82;0.73;;;25.00;99.90;;;;;;4418056;32;20070;-74
2021/06/21 01:42:27;;;;;;;1.45;0.93;;;24.90;99.90;;;;;;4419730;32;20132;-74
2021/06/21 01:45:00;;;;;;;0.50;0.50;;;24.90;99.90;;;;;;4418648;32;20089;-74
2021/06/21 01:47:27;;;;;;;0.90;0.43;;;24.90;99.90;;;;;;4421399;32;20135;-74
2021/06/21 01:49:54;;;;;;;1.60;0.77;;;24.90;99.90;;;;;;4418587;32;20074;-74
2021/06/21 01:52:21;;;;;;;2.22;0.90;;;24.90;99.90;;;;;;4418552;32;20082;-74
2021/06/21 01:54:54;;;;;;;3.42;1.45;;;24.90;99.90;;;;;;4419021;32;20069;-74
2021/06/21 01:57:25;;;;;;;0.30;0.30;;;24.80;99.90;;;;;;4417963;32;20950;-74
2021/06/21 01:59:52;;;;;;;2.37;0.90;;;24.90;99.90;;;;;;4418610;32;20121;-74
2021/06/21 02:02:21;;;;;;;2.53;1.08;;;24.90;99.90;;;;;;4419725;32;20177;-74
2021/06/21 02:04:48;;;;;;;2.92;1.58;;;24.90;99.90;;;;;;4419195;32;20587;-74
2021/06/21 02:07:17;;;;;;;0.55;0.52;;;24.90;99.90;;;;;;4418039;32;20082;-74
2021/06/21 02:09:43;;;;;;;0.52;0.37;;;24.80;99.90;;;;;;4419928;32;20070;-74
2021/06/21 02:12:09;;;;;;;0.45;0.45;;;24.90;99.90;;;;;;4417138;32;20070;-74
2021/06/21 02:14:35;;;;;;;6.15;1.75;;;24.80;99.90;;;;;;4419160;32;20128;-74
2021/06/21 02:17:02;;;;;;;1.85;0.77;;;24.80;99.90;;;;;;4417444;32;20352;-74
2021/06/21 02:19:31;;;;;;;1.73;0.98;;;24.70;99.90;;;;;;4419667;32;20821;-74
2021/06/21 02:21:58;;;;;;;0.90;0.73;;;24.60;99.90;;;;;;4417931;32;20437;-74
2021/06/21 02:24:25;;;;;;;0.77;0.70;;;24.50;99.90;;;;;;4419411;32;20525;-74
2021/06/21 02:26:52;;;;;;;0.98;0.62;;;24.50;99.90;;;;;;4417692;32;20881;-74
2021/06/21 02:29:22;;;;;;;1.48;0.55;;;24.50;99.90;;;;;;4419336;32;20116;-74
2021/06/21 02:31:49;;;;;;;2.30;0.93;;;24.40;99.90;;;;;;4418154;32;20082;-75
2021/06/21 02:34:14;;;;;;;0.20;0.20;;;24.30;99.90;;;;;;4418891;32;20069;-74
2021/06/21 02:36:40;;;;;;;1.45;0.45;;;24.20;99.90;;;;;;4418864;32;20081;-73
2021/06/21 02:39:07;;;;;;;0.95;0.73;;;24.00;99.90;;;;;;4416483;32;20522;-77
2021/06/21 02:41:32;;;;;;;0.40;0.37;;;23.70;99.90;;;;;;4418615;32;20433;-73
2021/06/21 02:43:58;;;;;;;0.90;0.70;;;23.50;99.90;;;;;;4418232;32;20527;-74
2021/06/21 02:46:24;;;;;;;1.02;0.90;;;23.40;99.90;;;;;;4419602;32;20127;-74
2021/06/21 02:48:50;;;;;;;0.90;0.60;;;23.50;99.90;;;;;;4418777;32;20082;-74
2021/06/21 02:51:19;;;;;;;1.08;0.70;;;23.60;99.90;;;;;;4417671;32;20090;-74
2021/06/21 02:53:59;;;;;;;1.45;0.93;;;23.60;99.90;;;;;;4421375;32;20116;-74
2021/06/21 02:56:31;;;;;;;0.75;0.75;;;23.50;99.90;;;;;;4420476;32;20070;-74
2021/06/21 02:59:03;;;;;;;0.68;0.68;;;23.60;99.90;;;;;;4422936;32;20090;-74
2021/06/21 03:01:29;;;;;;;2.80;1.20;;;23.60;99.90;;;;;;4422688;32;20147;-74
2021/06/21 03:03:56;;;;;;;1.27;0.82;;;23.60;99.90;;;;;;4420079;32;20515;-74
2021/06/21 03:06:24;;;;;;;0.60;0.60;;;23.40;99.90;;;;;;4422487;32;20566;-74
2021/06/21 03:08:51;;;;;;;0.73;0.50;;;23.40;99.90;;;;;;4419195;32;20057;-74
2021/06/21 03:11:18;;;;;;;0.50;0.50;;;23.30;99.90;;;;;;4419268;32;20178;-73
2021/06/21 03:13:45;;;;;;;1.35;1.25;;;23.30;99.90;;;;;;4420700;32;20062;-74
2021/06/21 03:16:12;;;;;;;0.68;0.68;;;23.30;99.90;;;;;;4420516;32;20089;-74
2021/06/21 03:18:39;;;;;;;3.53;0.52;;;23.30;99.90;;;;;;4421213;32;20066;-74
2021/06/21 03:21:06;;;;;;;0.60;0.60;;;23.30;99.90;;;;;;4420102;32;20066;-74
2021/06/21 03:23:33;;;;;;;1.60;0.98;;;23.20;99.90;;;;;;4422453;32;20069;-74
2021/06/21 03:26:01;;;;;;;0.30;0.30;;;23.10;99.90;;;;;;4419620;32;20070;-74
2021/06/21 03:28:28;;;;;;;1.45;0.75;;;23.00;99.90;;;;;;4422165;32;20073;-74
2021/06/21 03:30:58;;;;;;;1.17;0.70;;;22.90;99.90;;;;;;4419607;32;20069;-74
2021/06/21 03:33:24;;;;;;;0.40;0.40;;;22.90;99.90;;;;;;4420760;32;20062;-74
2021/06/21 03:35:49;;;;;;;0.50;0.50;;;23.00;99.90;;;;;;4420468;32;20069;-74
2021/06/21 03:38:19;;;;;;;0.75;0.75;;;23.10;99.90;;;;;;4418463;32;20417;-74
2021/06/21 03:40:45;;;;;;;0.20;0.20;;;23.20;99.90;;;;;;4422944;32;20069;-74
2021/06/21 03:43:13;;;;;;;0.60;0.60;;;23.00;99.90;;;;;;4421707;32;20065;-74
2021/06/21 03:45:39;;;;;;;1.65;0.82;;;22.90;99.90;;;;;;4421589;32;20078;-74
2021/06/21 03:48:05;;;;;;;0.50;0.50;;;22.70;99.90;;;;;;4420482;32;20073;-74
2021/06/21 03:50:31;;;;;;;0.45;0.45;;;22.70;99.90;;;;;;4420923;32;20086;-73
2021/06/21 03:52:56;;;;;;;0.82;0.57;;;22.80;99.90;;;;;;4418791;32;20062;-73
2021/06/21 03:55:22;;;;;;;1.90;1.02;;;22.70;99.90;;;;;;4420064;32;20091;-73
2021/06/21 03:57:49;;;;;;;0.65;0.40;;;22.60;99.90;;;;;;4419594;32;20090;-74
2021/06/21 04:00:18;;;;;;;2.12;1.02;;;22.50;99.90;;;;;;4418869;32;20566;-74
2021/06/21 04:02:44;;;;;;;0.52;0.52;;;22.60;99.90;;;;;;4422074;32;20132;-74
2021/06/21 04:05:10;;;;;;;0.30;0.30;;;22.50;99.90;;;;;;4419687;32;20077;-74
2021/06/21 04:07:37;;;;;;;0.30;0.30;;;22.50;99.90;;;;;;4420718;32;20656;-74
2021/06/21 04:10:05;;;;;;;0.30;0.30;;;22.60;99.90;;;;;;4418645;32;20522;-74
2021/06/21 04:12:31;;;;;;;1.40;0.70;;;22.80;99.90;;;;;;4422588;32;20459;-74
2021/06/21 04:14:56;;;;;;;0.80;0.62;;;22.80;99.90;;;;;;4420148;32;20090;-74
2021/06/21 04:17:22;;;;;;;0.80;0.55;;;22.80;99.90;;;;;;4419932;32;20120;-74
2021/06/21 04:19:47;;;;;;;0.40;0.40;;;22.80;99.90;;;;;;4420189;32;20065;-74
2021/06/21 04:22:13;;;;;;;0.43;0.43;;;22.80;99.90;;;;;;4411945;32;20120;-74
2021/06/21 04:24:38;;;;;;;1.77;0.90;;;23.00;99.90;;;;;;4417035;32;20082;-74
2021/06/21 04:27:04;;;;;;;0.60;0.60;;;22.90;99.90;;;;;;4416050;32;20090;-74
2021/06/21 04:29:30;;;;;;;0.62;0.62;;;23.00;99.90;;;;;;4421300;32;20290;-74
2021/06/21 04:31:56;;;;;;;0.88;0.70;;;22.90;99.90;;;;;;4417773;32;20436;-74
2021/06/21 04:34:21;;;;;;;0.43;0.43;;;23.00;99.90;;;;;;4420217;32;20086;-75
2021/06/21 04:36:47;;;;;;;0.20;0.20;;;23.00;99.90;;;;;;4418948;32;20078;-74
2021/06/21 04:39:12;;;;;;;0.95;0.70;;;23.00;99.90;;;;;;4417364;32;20066;-74
2021/06/21 04:41:38;;;;;;;0.40;0.40;;;23.10;99.90;;;;;;4418720;32;20078;-74
2021/06/21 04:44:03;;;;;;;1.17;0.80;;;23.10;99.90;;;;;;4418835;32;20124;-74
2021/06/21 04:46:33;;;;;;;0.57;0.57;;;23.20;99.90;;;;;;4423929;32;20384;-74
2021/06/21 04:48:58;;;;;;;0.40;0.40;;;23.20;99.90;;;;;;4417363;32;20061;-74
2021/06/21 04:51:24;;;;;;;0.45;0.45;;;23.30;99.90;;;;;;4418197;32;20502;-74
2021/06/21 04:53:49;;;;;;;0.30;0.30;;;23.40;99.90;;;;;;4422183;32;20385;-74
2021/06/21 04:56:15;;;;;;;0.93;0.85;;;23.50;99.90;;;;;;4418297;32;20792;-74
2021/06/21 04:58:42;;;;;;;0.40;0.40;;;23.50;99.90;;;;;;4423097;32;20069;-74
2021/06/21 05:01:08;;;;;;;0.65;0.60;;;23.50;99.90;;;;;;4414640;32;20109;-74
2021/06/21 05:03:37;;;;;;;1.33;0.98;;;23.50;99.90;;;;;;4415993;32;20500;-74
2021/06/21 05:06:04;;;;;;;0.95;0.80;;;23.50;99.90;;;;;;4419476;32;20061;-75
2021/06/21 05:08:30;;;;;;;0.50;0.50;;;23.50;99.90;;;;;;4420890;32;20488;-75
2021/06/21 05:10:55;;;;;;;1.85;0.85;;;23.60;99.90;;;;;;4420913;32;20062;-75
2021/06/21 05:13:21;;;;;;;0.50;0.50;;;23.60;99.90;;;;;;4418583;32;20196;-75
2021/06/21 05:15:46;;;;;;;1.87;1.12;;;23.60;99.90;;;;;;4417775;32;20450;-75
2021/06/21 05:18:11;;;;;;;0.55;0.55;;;23.60;99.90;;;;;;4406211;32;20098;-75
2021/06/21 05:20:37;;;;;;;2.37;1.73;;;23.60;99.90;;;;;;4418928;32;20113;-75
2021/06/21 05:23:02;;;;;;;31.65;1.02;;;23.60;99.90;;;;;;4421317;32;20074;-75
2021/06/21 05:25:32;;;;;;;0.30;0.30;;;23.50;99.90;;;;;;4421447;32;20419;-75
2021/06/21 05:27:58;;;;;;;0.95;0.77;;;23.60;99.90;;;;;;4406320;32;20086;-75
2021/06/21 05:30:23;;;;;;;0.50;0.50;;;23.60;99.90;;;;;;4409268;32;20847;-75
2021/06/21 05:32:49;;;;;;;1.75;0.98;;;23.70;99.90;;;;;;4403488;32;20159;-75
2021/06/21 05:35:15;;;;;;;4.43;0.80;;;23.70;99.90;;;;;;4419307;32;20522;-75
2021/06/21 05:37:40;;;;;;;4.43;1.02;;;23.80;99.90;;;;;;4414486;32;20204;-75
2021/06/21 05:40:06;;;;;;;0.77;0.68;;;23.80;99.90;;;;;;4416540;32;20145;-75
2021/06/21 05:42:32;;;;;;;2.08;1.08;;;23.80;99.90;;;;;;4416210;32;20073;-75
2021/06/21 05:44:58;;;;;;;0.65;0.62;;;23.90;99.90;;;;;;4412274;32;20101;-75
2021/06/21 05:47:24;;;;;;;0.50;0.50;;;24.00;99.90;;;;;;4413651;32;20423;-76
2021/06/21 05:49:50;;;;;;;1.17;1.08;;;24.20;99.90;;;;;;4416851;32;20078;-75
2021/06/21 05:52:15;;;;;;;3.95;1.60;;;24.30;99.90;;;;;;4417691;32;20069;-76
2021/06/21 05:54:41;;;;;;;0.75;0.75;;;24.30;99.90;;;;;;4416750;32;20098;-76
2021/06/21 05:57:07;;;;;;;1.17;0.70;;;24.20;99.90;;;;;;4417323;32;20424;-76
2021/06/21 05:59:33;;;;;;;1.05;1.00;;;24.30;99.90;;;;;;4415399;32;20073;-76
2021/06/21 06:01:59;;;;;;;0.95;0.90;;;24.30;99.90;;;;;;4416346;32;20101;-76
2021/06/21 06:04:24;;;;;;;0.40;0.40;;;24.40;99.90;;;;;;4417377;32;20074;-76
2021/06/21 06:06:50;;;;;;;4.60;1.52;;;24.30;99.90;;;;;;4418290;32;20077;-75
2021/06/21 06:09:15;;;;;;;0.52;0.50;;;24.30;99.90;;;;;;4419799;32;20082;-77
2021/06/21 06:11:41;;;;;;;0.55;0.55;;;24.20;99.90;;;;;;4415263;32;20077;-76
2021/06/21 06:14:06;;;;;;;0.50;0.50;;;24.10;99.90;;;;;;4420217;32;20537;-75
2021/06/21 06:16:32;;;;;;;4.50;1.62;;;24.30;99.90;;;;;;4416363;32;20081;-75
2021/06/21 06:18:57;;;;;;;1.17;0.82;;;24.30;99.90;;;;;;4417677;32;20189;-75
2021/06/21 06:21:29;;;;;;;0.43;0.43;;;24.30;99.90;;;;;;4417888;32;20070;-75
2021/06/21 06:23:57;;;;;;;0.62;0.62;;;24.20;99.90;;;;;;4419991;32;20065;-76
2021/06/21 06:26:23;;;;;;;2.87;0.90;;;24.30;99.90;;;;;;4415607;32;20089;-76
2021/06/21 06:28:49;;;;;;;1.75;0.80;;;24.50;99.90;;;;;;4421990;32;20637;-76
2021/06/21 06:31:14;;;;;;;3.47;1.08;;;24.60;99.90;;;;;;4419817;32;20065;-76
2021/06/21 06:33:40;;;;;;;0.57;0.57;;;24.60;99.90;;;;;;4417630;32;20085;-76
2021/06/21 06:36:06;;;;;;;0.75;0.70;;;24.60;99.90;;;;;;4418209;32;20090;-76
2021/06/21 06:38:32;;;;;;;0.57;0.57;;;24.70;99.90;;;;;;4412211;32;20089;-76
2021/06/21 06:40:58;;;;;;;2.78;1.65;;;24.80;99.90;;;;;;4412642;32;20436;-77
2021/06/21 06:43:24;;;;;;;0.80;0.70;;;24.80;99.90;;;;;;4415015;32;20077;-76
2021/06/21 06:45:50;;;;;;;0.68;0.65;;;24.80;99.90;;;;;;4416129;32;20108;-76
2021/06/21 06:48:16;;;;;;;0.62;0.62;;;24.90;99.90;;;;;;4414045;32;20131;-76
2021/06/21 06:50:41;;;;;;;1.17;0.80;;;25.00;99.90;;;;;;4416739;32;20074;-76
2021/06/21 06:53:07;;;;;;;2.08;1.02;;;25.10;99.90;;;;;;4416286;32;20494;-76
2021/06/21 06:57:04;;;;;;;0.57;0.52;;;25.30;99.90;;;;;;4415832;32;20132;-77
2021/06/21 06:58:18;;;;;;;0.62;0.62;;;25.40;99.90;;;;;;4400656;32;20526;-77
2021/06/21 07:00:46;;;;;;;5.15;1.70;;;25.40;99.90;;;;;;4414387;32;20077;-76
2021/06/21 07:03:12;;;;;;;2.10;1.27;;;25.40;99.90;;;;;;4417875;32;20077;-76
2021/06/21 07:05:40;;;;;;;0.70;0.60;;;25.50;99.90;;;;;;4416579;32;20130;-76
2021/06/21 07:08:06;;;;;;;0.70;0.47;;;25.50;99.90;;;;;;4418921;32;20105;-77
2021/06/21 07:10:32;;;;;;;0.60;0.50;;;25.30;99.90;;;;;;4420210;32;20514;-77
2021/06/21 07:12:59;;;;;;;1.55;1.00;;;25.40;99.90;;;;;;4416522;32;20069;-76
2021/06/21 07:15:25;;;;;;;24.30;2.85;;;25.70;99.90;;;;;;4417291;32;20148;-76
2021/06/21 07:17:51;;;;;;;0.73;0.52;;;25.90;99.90;;;;;;4411345;32;20070;-76
2021/06/21 07:20:16;;;;;;;0.75;0.65;;;25.90;99.90;;;;;;4415783;32;20082;-76
2021/06/21 07:22:42;;;;;;;0.55;0.50;;;25.90;99.90;;;;;;4415366;32;20089;-76
2021/06/21 07:25:08;;;;;;;1.50;0.47;;;26.10;99.90;;;;;;4411384;32;20132;-76
2021/06/21 07:27:34;;;;;;;0.90;0.60;;;25.70;99.90;;;;;;4410578;32;20131;-77
2021/06/21 07:29:59;;;;;;;1.02;0.65;;;25.80;99.90;;;;;;4413780;32;20141;-77
2021/06/21 07:32:25;;;;;;;0.88;0.82;;;25.80;99.90;;;;;;4409912;32;20219;-77
2021/06/21 07:34:51;;;;;;;3.10;1.15;;;26.00;99.90;;;;;;4413814;32;20518;-77
2021/06/21 07:37:17;;;;;;;0.98;0.85;;;26.10;99.90;;;;;;4415647;32;20138;-77
2021/06/21 07:39:42;;;;;;;1.08;0.70;;;26.20;99.90;;;;;;4418718;32;20133;-77
2021/06/21 07:42:08;;;;;;;0.50;0.50;;;26.30;99.90;;;;;;4420122;32;20125;-76
2021/06/21 07:44:35;;;;;;;1.05;0.93;;;26.20;99.90;;;;;;4420148;32;20531;-76
2021/06/21 07:47:01;;;;;;;1.15;1.02;;;26.20;99.90;;;;;;4416092;32;20089;-76
2021/06/21 07:49:27;;;;;;;0.30;0.30;;;26.40;99.90;;;;;;4416892;32;20090;-77
2021/06/21 07:51:53;;;;;;;1.55;0.30;;;26.40;99.90;;;;;;4417954;32;20072;-77
2021/06/21 07:54:20;;;;;;;1.70;0.65;;;26.50;99.90;;;;;;4419937;32;20089;-78
2021/06/21 07:56:45;;;;;;;0.62;0.62;;;26.60;99.90;;;;;;4420708;32;20090;-76
2021/06/21 07:59:11;;;;;;;0.30;0.30;;;26.60;99.90;;;;;;4422276;32;20517;-76
2021/06/21 08:01:38;;;;;;;31.48;1.65;;;26.60;99.90;;;;;;4418079;32;20101;-76
2021/06/21 08:04:03;;;;;;;1.05;0.62;;;26.70;99.90;;;;;;4419387;32;20085;-77
2021/06/21 08:06:29;;;;;;;3.75;1.48;;;26.70;99.90;;;;;;4420105;32;20061;-77
2021/06/21 08:08:54;;;;;;;1.45;0.95;;;26.60;99.90;;;;;;4420846;32;20475;-77
2021/06/21 08:11:20;;;;;;;1.60;1.10;;;26.70;99.90;;;;;;4416572;32;20113;-77
2021/06/21 08:13:45;;;;;;;0.50;0.50;;;27.00;99.90;;;;;;4421241;32;20083;-77
2021/06/21 08:16:11;;;;;;;0.50;0.43;;;27.20;99.90;;;;;;4419440;32;20594;-77
2021/06/21 08:18:37;;;;;;;0.95;0.60;;;27.20;99.90;;;;;;4418669;32;20065;-77
2021/06/21 08:21:03;;;;;;;1.40;0.73;;;27.00;99.90;;;;;;4415035;32;20061;-77
2021/06/21 08:23:30;;;;;;;0.52;0.52;;;27.00;99.90;;;;;;4418884;32;20136;-77
2021/06/21 08:25:56;;;;;;;0.37;0.37;;;26.80;99.90;;;;;;4421438;32;20467;-77
2021/06/21 08:28:21;;;;;;;1.65;1.12;;;26.90;99.90;;;;;;4419594;32;20073;-77
2021/06/21 08:30:48;;;;;;;1.25;0.77;;;26.90;99.90;;;;;;4418355;32;20129;-77
2021/06/21 08:33:14;;;;;;;0.50;0.50;;;27.20;99.90;;;;;;4419450;32;20772;-76
2021/06/21 08:35:40;;;;;;;0.25;0.25;;;27.30;99.90;;;;;;4421328;32;20077;-76
2021/06/21 08:38:05;;;;;;;0.37;0.37;;;27.40;99.80;;;;;;4420152;32;20121;-75
2021/06/21 08:40:33;;;;;;;3.00;0.25;;;27.20;99.30;;;;;;4417501;32;20101;-75
2021/06/21 08:43:12;;;;;;;0.10;0.10;;;27.10;99.50;;;;;;4427940;27;20101;-88
2021/06/21 08:45:45;;;;;;;2.55;0.57;;;27.20;98.90;;;;;;4422961;32;20141;-87
2021/06/21 08:48:12;;;;;;;1.45;0.75;;;27.30;98.90;;;;;;4414372;32;20085;-86
2021/06/21 08:50:43;;;;;;;0.10;0.10;;;27.50;98.50;;;;;;4412137;32;20097;-87
2021/06/21 08:53:14;;;;;;;1.25;0.80;;;27.60;98.90;;;;;;4408862;32;20302;-88
2021/06/21 08:55:40;;;;;;;4.00;0.37;;;27.60;98.10;;;;;;4421212;27;20840;-76
2021/06/21 08:58:05;;;;;;;0.80;0.57;;;27.70;98.70;;;;;;4425837;32;20077;-76
2021/06/21 09:00:31;;;;;;;0.43;0.32;;;27.70;98.70;;;;;;4427224;32;20427;-74
2021/06/21 09:03:01;;;;;;;0.95;0.65;;;27.60;98.90;;;;;;4428968;32;20423;-75
2021/06/21 09:05:27;;;;;;;0.82;0.50;;;27.40;99.40;;;;;;4430136;32;20116;-75
2021/06/21 09:08:03;;;;;;;2.10;0.77;;;27.20;99.90;;;;;;4427494;32;20660;-74
2021/06/21 09:10:30;;;;;;;0.30;0.30;;;27.20;99.90;;;;;;4427840;32;21003;-75
2021/06/21 09:13:16;;;;;;;0.55;0.47;;;27.40;99.00;;;;;;4427213;32;20473;-76
2021/06/21 09:15:44;;;;;;;0.25;0.25;;;27.30;99.20;;;;;;4416051;32;20078;-76
2021/06/21 09:18:34;;;;;;;0.47;0.47;;;27.40;99.00;;;;;;4426863;32;20166;-76
2021/06/21 09:21:26;;;;;;;9.83;1.17;;;27.60;99.30;;;;;;4413000;32;20124;-76
2021/06/21 09:23:54;;;;;;;0.25;0.22;;;27.80;99.30;;;;;;4415242;32;20136;-77
2021/06/21 09:26:25;;;;;;;1.10;0.75;;;27.70;99.50;;;;;;4430036;32;20070;-76
2021/06/21 09:28:51;;;;;;;0.10;0.10;;;27.50;99.70;;;;;;4424576;32;20081;-74
2021/06/21 09:31:18;;;;;;;4.85;0.77;;;27.20;99.90;;;;;;4423570;32;20157;-74
2021/06/21 09:33:44;;;;;;;1.20;0.40;;;27.20;99.90;;;;;;4426816;32;20112;-74
2021/06/21 09:36:23;;;;;;;0.30;0.30;;;27.30;99.60;;;;;;4424665;32;20085;-74
2021/06/21 09:39:29;;;;;;;0.25;0.25;;;27.20;99.70;;;;;;4424742;32;20919;-75
2021/06/21 09:42:19;;;;;;;0.52;0.52;;;27.40;99.70;;;;;;4413714;32;125610;-75
2021/06/21 09:45:00;;;;;;;;;;;27.30;99.90;;;;;;4413265;32;20443;-74
2021/06/21 09:47:30;;;;;;;1.75;0.32;;;27.50;99.90;;;;;;4419212;32;19949;-74
2021/06/21 09:50:19;;;;;;;0.73;0.60;;;27.80;99.90;;;;;;4417661;32;20597;-75
2021/06/21 09:52:49;;;;;;;0.28;0.28;;;28.30;99.40;;;;;;4401169;32;20470;-78
2021/06/21 09:55:24;;;;;;;0.35;0.30;;;28.40;98.70;;;;;;4415338;32;20089;-75
2021/06/21 09:58:11;;;;;;;0.22;0.22;;;28.10;98.70;;;;;;4413245;32;20113;-74
2021/06/21 10:00:40;;;;;;;6.10;1.73;;;28.30;98.90;;;;;;4400676;32;20085;-74
2021/06/21 10:03:11;;;;;;;6.12;0.55;;;28.00;99.40;;;;;;4416828;32;20057;-75
2021/06/21 10:05:42;;;;;;;0.52;0.40;;;28.30;99.20;;;;;;4417803;32;20113;-74
2021/06/21 10:08:11;;;;;;;1.25;0.85;;;28.40;98.90;;;;;;4416717;32;20141;-75
2021/06/21 10:10:37;;;;;;;0.20;0.20;;;28.40;98.60;;;;;;4415410;32;20572;-75
2021/06/21 10:13:04;;;;;;;0.20;0.20;;;28.60;98.80;;;;;;4410814;32;20073;-74
2021/06/21 10:15:30;;;;;;;2.28;1.23;;;28.70;98.80;;;;;;4418205;32;20085;-74
2021/06/21 10:17:56;;;;;;;15.63;0.95;;;28.70;98.60;;;;;;4415805;32;20585;-74
2021/06/21 10:20:21;;;;;;;0.90;0.60;;;28.70;98.50;;;;;;4416810;32;20074;-74
2021/06/21 10:22:48;;;;;;;10.70;1.15;;;28.70;98.60;;;;;;4415091;32;20081;-77
2021/06/21 10:25:14;;;;;;;0.35;0.35;;;28.60;98.50;;;;;;4414476;32;20078;-77
2021/06/21 10:27:43;;;;;;;1.10;0.57;;;28.40;99.00;;;;;;4418548;32;20057;-75
2021/06/21 10:30:11;;;;;;;0.28;0.28;;;28.60;98.90;;;;;;4420736;32;20066;-79
2021/06/21 10:32:37;;;;;;;0.20;0.20;;;28.70;97.70;;;;;;4422721;32;20069;-77
2021/06/21 10:35:04;;;;;;;0.45;0.43;;;28.70;98.40;;;;;;4418682;32;20454;-77
2021/06/21 10:37:30;;;;;;;0.20;0.20;;;28.50;98.40;;;;;;4419395;32;20057;-78
2021/06/21 10:40:03;;;;;;;0.73;0.40;;;28.80;98.30;;;;;;4420608;32;20160;-80
2021/06/21 10:42:37;;;;;;;0.17;0.17;;;28.90;97.20;;;;;;4419114;32;20090;-78
2021/06/21 10:45:06;;;;;;;0.70;0.70;;;29.00;96.80;;;;;;4419997;32;20062;-80
2021/06/21 10:47:36;;;;;;;4.85;1.75;;;29.00;97.10;;;;;;4422558;32;20069;-79
2021/06/21 10:50:13;;;;;;;0.28;0.28;;;29.00;97.10;;;;;;4417042;32;20078;-78
2021/06/21 10:52:57;;;;;;;0.30;0.28;;;29.00;97.30;;;;;;4403568;32;20102;-80
2021/06/21 10:55:26;;;;;;;1.55;0.60;;;29.30;96.90;;;;;;4418348;32;20074;-77
2021/06/21 10:58:12;;;;;;;0.10;0.10;;;29.60;96.50;;;;;;4400588;32;20074;-74
2021/06/21 11:00:42;;;;;;;0.20;0.20;;;30.00;95.60;;;;;;4410749;32;20493;-75
2021/06/21 11:03:29;;;;;;;18.12;1.17;;;30.30;95.20;;;;;;4411830;32;20122;-76
2021/06/21 11:05:58;;;;;;;0.68;0.68;;;29.90;95.60;;;;;;4401962;32;20522;-77
2021/06/21 11:08:26;;;;;;;0.35;0.35;;;29.90;95.90;;;;;;4416502;32;20494;-75
2021/06/21 11:10:54;;;;;;;1.37;1.15;;;30.00;95.20;;;;;;4418627;32;20334;-75
2021/06/21 11:13:39;;;;;;;0.40;0.30;;;30.10;95.10;;;;;;4413239;32;20160;-74
2021/06/21 11:16:22;;;;;;;1.00;0.30;;;30.20;94.90;;;;;;4421287;32;20359;-74
2021/06/21 11:19:10;;;;;;;1.37;0.85;;;30.20;94.90;;;;;;4420987;32;20514;-74
2021/06/21 11:21:46;;;;;;;0.47;0.32;;;30.70;94.30;;;;;;4410316;32;20507;-74
2021/06/21 11:24:37;;;;;;;0.20;0.20;;;31.10;93.30;;;;;;4419324;32;20116;-75
2021/06/21 11:27:06;;;;;;;0.37;0.30;;;31.20;93.00;;;;;;4404629;32;20411;-74
2021/06/21 11:29:34;;;;;;;1.50;0.50;;;31.40;92.70;;;;;;4418680;32;20282;-74
2021/06/21 11:32:02;;;;;;;0.08;0.08;;;31.80;91.90;;;;;;4417467;32;20093;-74
2021/06/21 11:35:01;;;;;;;0.20;0.20;;;32.20;91.30;;;;;;4420657;32;20077;-74
2021/06/21 11:37:47;;;;;;;0.82;0.55;;;31.90;91.50;;;;;;4418734;32;20077;-74
2021/06/21 11:40:17;;;;;;;0.20;0.20;;;31.70;91.60;;;;;;4421190;32;20071;-74
2021/06/21 11:43:04;;;;;;;1.55;0.50;;;31.40;91.90;;;;;;4406042;32;20069;-75
2021/06/21 11:45:49;;;;;;;0.50;0.50;;;31.60;91.80;;;;;;4405262;32;20057;-75
2021/06/21 11:48:33;;;;;;;0.57;0.50;;;32.30;91.10;;;;;;4419480;32;20065;-74
2021/06/21 11:51:08;;;;;;;0.20;0.20;;;33.10;88.40;;;;;;4420116;32;20058;-75
2021/06/21 11:53:33;;;;;;;1.05;0.95;;;33.30;88.20;;;;;;4419769;32;20092;-75
2021/06/21 11:55:59;;;;;;;0.40;0.37;;;32.90;88.20;;;;;;4418953;32;20224;-74
2021/06/21 11:58:26;;;;;;;0.20;0.20;;;32.60;86.60;;;;;;4422604;32;20511;-74
2021/06/21 12:00:51;;;;;;;0.10;0.10;;;32.80;87.00;;;;;;4421218;32;20108;-74
2021/06/21 12:03:17;;;;;;;0.30;0.22;;;33.30;84.50;;;;;;4418853;32;20125;-75
2021/06/21 12:05:53;;;;;;;1.00;0.52;;;33.80;83.40;;;;;;4417987;32;20086;-75
2021/06/21 12:08:19;;;;;;;1.73;0.90;;;33.90;84.00;;;;;;4422617;32;20468;-75
2021/06/21 12:10:45;;;;;;;0.40;0.40;;;33.70;84.60;;;;;;4419305;32;20117;-75
2021/06/21 12:13:11;;;;;;;0.22;0.22;;;34.20;82.40;;;;;;4417481;32;20150;-75
2021/06/21 12:15:40;;;;;;;0.82;0.60;;;34.50;81.20;;;;;;4417664;32;20125;-75
2021/06/21 12:18:07;;;;;;;0.60;0.60;;;34.60;82.00;;;;;;4419684;32;20073;-76
2021/06/21 12:20:34;;;;;;;1.20;0.43;;;34.80;80.10;;;;;;4419538;32;20509;-75
2021/06/21 12:23:03;;;;;;;22.98;1.20;;;35.30;76.80;;;;;;4417727;32;20216;-76
2021/06/21 12:25:33;;;;;;;0.98;0.75;;;35.70;73.80;;;;;;4421693;32;20090;-76
2021/06/21 12:28:20;;;;;;;3.90;0.50;;;36.30;71.30;;;;;;4417166;32;20069;-76
2021/06/21 12:30:49;;;;;;;1.10;0.68;;;36.30;67.70;;;;;;4403636;32;20074;-76
2021/06/21 12:33:36;;;;;;;0.30;0.30;;;36.20;66.30;;;;;;4416943;32;20088;-76
2021/06/21 12:36:28;;;;;;;0.98;0.50;;;36.20;65.70;;;;;;4405815;32;20116;-76
2021/06/21 12:38:58;;;;;;;3.45;1.23;;;36.20;67.00;;;;;;4408302;32;20057;-76
2021/06/21 12:41:27;;;;;;;;;;;36.50;65.30;;;;;;4421813;32;20073;-76
2021/06/21 12:44:00;;;;;;;0.40;0.40;;;36.50;65.70;;;;;;4421721;32;19968;-76
2021/06/21 12:46:29;;;;;;;0.75;0.60;;;36.80;65.10;;;;;;4416578;32;20053;-75
2021/06/21 12:48:57;;;;;;;0.90;0.70;;;37.10;63.70;;;;;;4420385;32;20392;-75
2021/06/21 12:51:23;;;;;;;0.37;0.37;;;36.80;64.00;;;;;;4419888;32;20090;-74
2021/06/21 12:53:51;;;;;;;0.95;0.85;;;36.50;64.80;;;;;;4422476;32;20066;-74
2021/06/21 12:56:23;;;;;;;0.20;0.20;;;36.30;65.90;;;;;;4417102;32;20394;-75